Time;durP1;ratioP1;P1;durP2;ratioP2;P2;SDS_P1;SDS_P2;PMS_P1;PMS_P2;Temp;Humidity;BMP_temperature;BMP_pressure;BME280_temperature;BME280_humidity;BME280_pressure;Samples;Min_cycle;Max_cycle;Signal;HPM_P1;HPM_P2
2021/05/28 00:02:01;;;;;;;19.38;2.92;;;39.50;8.90;;;;;;5035805;28;20069;-65
2021/05/28 00:04:27;;;;;;;12.52;2.15;;;39.60;8.90;;;;;;5035458;28;20078;-65
2021/05/28 00:06:54;;;;;;;15.75;2.70;;;39.50;9.10;;;;;;5033061;28;20080;-65
2021/05/28 00:09:20;;;;;;;14.90;2.35;;;39.50;9.10;;;;;;5032360;28;21450;-65
2021/05/28 00:11:47;;;;;;;13.93;2.47;;;39.30;8.60;;;;;;5040846;28;20105;-65
2021/05/28 00:14:13;;;;;;;12.60;2.58;;;39.30;9.20;;;;;;5038033;28;20081;-65
2021/05/28 00:16:40;;;;;;;11.30;2.30;;;39.20;9.20;;;;;;5032298;28;20085;-64
2021/05/28 00:19:06;;;;;;;17.33;2.97;;;39.20;9.30;;;;;;5037038;28;20192;-65
2021/05/28 00:21:34;;;;;;;12.07;2.35;;;39.00;9.20;;;;;;5035154;28;20074;-65
2021/05/28 00:24:00;;;;;;;12.20;2.88;;;39.00;9.80;;;;;;5039300;28;20074;-65
2021/05/28 00:26:27;;;;;;;9.57;2.00;;;39.00;9.40;;;;;;5040364;28;20116;-65
2021/05/28 00:28:54;;;;;;;14.50;2.25;;;39.10;9.60;;;;;;5036759;28;20074;-64
2021/05/28 00:31:21;;;;;;;15.57;2.65;;;39.10;10.30;;;;;;5036426;28;20077;-65
2021/05/28 00:33:48;;;;;;;13.32;2.80;;;39.00;9.60;;;;;;5036041;28;20082;-64
2021/05/28 00:36:14;;;;;;;10.27;2.10;;;38.90;9.50;;;;;;5037524;28;20089;-64
2021/05/28 00:38:41;;;;;;;14.00;2.22;;;38.90;9.60;;;;;;5038139;28;20079;-64
2021/05/28 00:41:07;;;;;;;13.35;2.40;;;39.00;9.50;;;;;;5039974;28;20128;-65
2021/05/28 00:43:34;;;;;;;15.50;2.50;;;39.00;9.70;;;;;;5044987;28;20082;-65
2021/05/28 00:46:01;;;;;;;7.68;2.88;;;39.00;10.00;;;;;;5043805;28;20120;-65
2021/05/28 00:48:27;;;;;;;11.32;2.72;;;39.10;9.50;;;;;;5042062;28;20074;-65
2021/05/28 00:50:54;;;;;;;13.65;2.83;;;39.00;9.00;;;;;;5044124;28;20165;-65
2021/05/28 00:53:22;;;;;;;15.57;3.65;;;38.70;9.20;;;;;;5045460;28;20105;-65
2021/05/28 00:55:49;;;;;;;12.70;2.50;;;38.60;9.50;;;;;;5036953;28;20164;-65
2021/05/28 00:58:16;;;;;;;15.68;2.72;;;38.50;10.40;;;;;;5041025;28;20089;-67
2021/05/28 01:00:43;;;;;;;10.73;2.35;;;38.50;10.00;;;;;;5039882;28;20097;-65
2021/05/28 01:03:10;;;;;;;13.10;2.20;;;38.50;9.20;;;;;;5046075;28;20460;-65
2021/05/28 01:05:37;;;;;;;10.45;2.20;;;38.30;9.30;;;;;;5040348;28;20085;-65
2021/05/28 01:08:04;;;;;;;13.35;2.70;;;38.30;10.10;;;;;;5042023;28;20115;-65
2021/05/28 01:10:30;;;;;;;14.32;2.30;;;38.20;10.00;;;;;;5047314;28;20077;-65
2021/05/28 01:13:07;;;;;;;10.38;2.83;;;38.20;10.20;;;;;;5041039;28;20148;-66
2021/05/28 01:15:35;;;;;;;17.50;2.88;;;38.10;10.00;;;;;;5039865;28;21688;-65
2021/05/28 01:18:01;;;;;;;16.88;2.60;;;38.10;11.00;;;;;;5045188;28;20078;-65
2021/05/28 01:20:28;;;;;;;18.05;2.65;;;37.90;10.70;;;;;;5034966;28;20136;-65
2021/05/28 01:22:58;;;;;;;11.85;2.30;;;37.80;10.20;;;;;;5038544;28;20155;-65
2021/05/28 01:25:26;;;;;;;19.67;2.17;;;37.80;10.00;;;;;;5035216;28;20188;-65
2021/05/28 01:27:52;;;;;;;10.55;2.15;;;37.70;10.20;;;;;;5040617;28;20073;-64
2021/05/28 01:30:19;;;;;;;11.27;2.15;;;37.70;10.80;;;;;;5041481;28;20078;-66
2021/05/28 01:32:46;;;;;;;16.63;2.20;;;37.50;11.80;;;;;;5041206;28;20074;-66
2021/05/28 01:35:15;;;;;;;13.10;2.25;;;37.40;11.20;;;;;;5042760;28;20105;-66
2021/05/28 01:37:43;;;;;;;12.00;2.65;;;37.20;11.50;;;;;;5038800;28;20168;-65
2021/05/28 01:40:11;;;;;;;13.93;2.47;;;37.10;11.80;;;;;;5040873;28;20093;-65
2021/05/28 01:42:37;;;;;;;13.95;2.22;;;37.00;11.90;;;;;;5039815;28;20085;-66
2021/05/28 01:45:08;;;;;;;16.05;2.28;;;36.80;11.80;;;;;;5043459;28;20078;-65
2021/05/28 01:47:34;;;;;;;12.57;2.00;;;36.80;11.90;;;;;;5041312;28;20078;-66
2021/05/28 01:50:01;;;;;;;13.15;2.42;;;36.90;12.00;;;;;;5043838;28;20442;-65
2021/05/28 01:52:28;;;;;;;15.05;2.28;;;36.90;12.20;;;;;;5044606;28;20094;-65
2021/05/28 01:54:56;;;;;;;11.82;1.88;;;36.80;12.40;;;;;;5037294;28;20125;-65
2021/05/28 01:57:22;;;;;;;12.23;2.05;;;36.60;12.10;;;;;;5040076;28;20078;-65
2021/05/28 01:59:49;;;;;;;8.93;2.22;;;36.40;12.10;;;;;;5043100;28;20109;-64
2021/05/28 02:02:15;;;;;;;8.00;2.00;;;36.30;12.30;;;;;;5043866;28;20070;-65
2021/05/28 02:04:43;;;;;;;18.83;2.20;;;36.20;12.30;;;;;;5045312;28;20430;-69
2021/05/28 02:07:11;;;;;;;9.48;1.70;;;36.00;12.40;;;;;;5043557;28;20564;-64
2021/05/28 02:09:38;;;;;;;13.55;2.45;;;35.90;12.50;;;;;;5039699;28;20085;-64
2021/05/28 02:12:05;;;;;;;16.73;2.17;;;35.80;12.40;;;;;;5037685;28;20137;-64
2021/05/28 02:14:31;;;;;;;12.88;2.08;;;35.70;12.70;;;;;;5036477;28;20093;-65
2021/05/28 02:16:58;;;;;;;13.90;2.17;;;35.60;12.50;;;;;;5038097;28;20077;-65
2021/05/28 02:19:25;;;;;;;7.82;2.10;;;35.50;12.80;;;;;;5037143;28;20162;-65
2021/05/28 02:21:53;;;;;;;6.13;2.00;;;35.30;12.70;;;;;;5038262;28;20085;-65
2021/05/28 02:24:22;;;;;;;12.35;1.88;;;35.20;12.50;;;;;;5043204;28;20085;-65
2021/05/28 02:26:50;;;;;;;17.23;2.47;;;35.20;12.70;;;;;;5040716;28;20093;-64
2021/05/28 02:29:17;;;;;;;8.25;1.70;;;35.00;12.90;;;;;;5041304;28;20108;-65
2021/05/28 02:31:44;;;;;;;15.95;2.50;;;34.90;13.10;;;;;;5043895;28;20427;-65
2021/05/28 02:34:11;;;;;;;9.63;2.30;;;34.90;13.20;;;;;;5039462;28;20081;-64
2021/05/28 02:36:37;;;;;;;34.88;2.70;;;34.80;12.90;;;;;;5042189;28;20164;-65
2021/05/28 02:39:06;;;;;;;27.90;3.35;;;34.70;12.90;;;;;;5042138;28;20475;-65
2021/05/28 02:41:33;;;;;;;30.35;3.78;;;34.70;13.20;;;;;;5044678;28;20097;-64
2021/05/28 02:44:00;;;;;;;28.40;4.03;;;34.60;13.10;;;;;;5042079;28;20074;-64
2021/05/28 02:46:29;;;;;;;21.17;3.60;;;34.50;13.10;;;;;;5038756;28;20078;-65
2021/05/28 02:48:55;;;;;;;25.13;3.90;;;34.40;13.40;;;;;;5041693;28;20161;-64
2021/05/28 02:51:22;;;;;;;19.20;4.57;;;34.40;13.30;;;;;;5038776;28;20078;-64
2021/05/28 02:53:48;;;;;;;31.25;5.50;;;34.30;13.30;;;;;;5041868;28;20490;-63
2021/05/28 02:56:15;;;;;;;20.27;3.85;;;34.30;13.30;;;;;;5036096;28;20129;-67
2021/05/28 02:58:41;;;;;;;20.30;3.80;;;34.10;13.20;;;;;;5037219;28;20074;-65
2021/05/28 03:01:08;;;;;;;23.33;3.90;;;34.10;13.20;;;;;;5035431;28;20230;-65
2021/05/28 03:03:34;;;;;;;32.00;4.45;;;34.00;13.10;;;;;;5041254;28;20163;-65
2021/05/28 03:06:01;;;;;;;25.58;4.93;;;33.90;13.20;;;;;;5040820;28;20120;-64
2021/05/28 03:08:30;;;;;;;34.70;6.13;;;33.80;13.40;;;;;;5042950;28;20484;-65
2021/05/28 03:10:57;;;;;;;28.15;5.57;;;33.80;13.40;;;;;;5042861;28;20424;-64
2021/05/28 03:13:23;;;;;;;31.75;5.63;;;33.80;13.50;;;;;;5040397;28;20069;-65
2021/05/28 03:15:50;;;;;;;41.22;5.47;;;33.70;13.70;;;;;;5042046;28;20078;-64
2021/05/28 03:18:19;;;;;;;30.58;5.95;;;33.60;13.70;;;;;;5040300;28;20150;-65
2021/05/28 03:20:48;;;;;;;39.65;6.30;;;33.60;13.90;;;;;;5041578;28;20586;-65
2021/05/28 03:23:15;;;;;;;40.20;5.85;;;33.50;14.20;;;;;;5041111;28;20085;-64
2021/05/28 03:25:43;;;;;;;36.72;5.97;;;33.40;14.30;;;;;;5042300;28;20162;-65
2021/05/28 03:28:10;;;;;;;38.17;6.00;;;33.30;14.30;;;;;;5043241;28;20446;-64
2021/05/28 03:30:37;;;;;;;47.78;6.18;;;33.20;14.30;;;;;;5043550;28;20076;-64
2021/05/28 03:33:05;;;;;;;36.25;6.00;;;33.10;14.50;;;;;;5040934;28;20065;-64
2021/05/28 03:35:32;;;;;;;24.73;5.00;;;33.10;14.50;;;;;;5040825;28;20078;-64
2021/05/28 03:37:59;;;;;;;34.78;5.75;;;33.00;14.40;;;;;;5041727;28;20074;-64
2021/05/28 03:40:25;;;;;;;38.60;6.03;;;32.90;14.50;;;;;;5041681;28;20098;-64
2021/05/28 03:42:52;;;;;;;40.35;5.70;;;32.70;14.20;;;;;;5041805;28;20074;-64
2021/05/28 03:45:18;;;;;;;31.83;5.20;;;32.70;14.30;;;;;;5041046;28;20085;-64
2021/05/28 03:47:45;;;;;;;24.15;4.63;;;32.60;14.50;;;;;;5042043;28;20080;-64
2021/05/28 03:50:12;;;;;;;28.33;5.05;;;32.50;14.60;;;;;;5039040;28;20132;-66
2021/05/28 03:52:38;;;;;;;39.00;5.35;;;32.50;14.80;;;;;;5041295;28;20070;-65
2021/05/28 03:55:05;;;;;;;26.50;5.70;;;32.30;14.70;;;;;;5039479;28;20165;-66
2021/05/28 03:57:32;;;;;;;23.75;5.57;;;32.30;14.90;;;;;;5043107;28;20066;-64
2021/05/28 03:59:58;;;;;;;25.88;5.40;;;32.10;14.90;;;;;;5041290;28;20101;-65
2021/05/28 04:02:25;;;;;;;20.55;4.18;;;32.00;14.60;;;;;;5040773;28;20095;-64
2021/05/28 04:04:51;;;;;;;35.17;4.90;;;31.90;14.40;;;;;;5041842;28;20081;-64
2021/05/28 04:07:18;;;;;;;20.58;4.65;;;31.90;25.30;;;;;;5040861;28;20074;-64
2021/05/28 04:09:44;;;;;;;25.35;4.45;;;31.80;13.50;;;;;;5039312;28;20085;-65
2021/05/28 04:12:11;;;;;;;20.50;4.07;;;31.70;14.00;;;;;;5041039;28;20074;-63
2021/05/28 04:14:37;;;;;;;22.75;4.32;;;31.70;19.60;;;;;;5040386;28;20530;-65
2021/05/28 04:17:04;;;;;;;29.92;4.53;;;31.60;13.10;;;;;;5042518;28;20519;-65
2021/05/28 04:19:30;;;;;;;34.75;6.13;;;31.60;13.10;;;;;;5042015;28;20192;-64
2021/05/28 04:21:57;;;;;;;35.63;4.97;;;31.50;13.20;;;;;;5044284;28;20086;-65
2021/05/28 04:24:23;;;;;;;26.30;3.83;;;31.40;13.20;;;;;;5043028;28;20622;-64
2021/05/28 04:26:51;;;;;;;25.25;4.38;;;31.40;13.30;;;;;;5039123;28;20078;-64
2021/05/28 04:29:19;;;;;;;31.77;4.07;;;31.40;13.60;;;;;;5041273;28;20510;-65
2021/05/28 04:31:46;;;;;;;26.33;3.33;;;31.30;13.60;;;;;;5043281;28;20090;-65
2021/05/28 04:34:12;;;;;;;24.05;3.83;;;31.20;13.60;;;;;;5039263;28;20450;-64
2021/05/28 04:36:39;;;;;;;30.23;4.20;;;31.20;14.10;;;;;;5042499;28;20211;-64
2021/05/28 04:39:06;;;;;;;25.95;4.53;;;31.00;14.10;;;;;;5045302;28;20092;-64
2021/05/28 04:41:32;;;;;;;49.67;5.60;;;30.90;14.30;;;;;;5043196;28;20097;-63
2021/05/28 04:43:59;;;;;;;30.33;5.65;;;30.70;14.10;;;;;;5041772;28;20066;-63
2021/05/28 04:46:27;;;;;;;35.92;6.10;;;30.70;40.20;;;;;;5038374;28;20040;-64
2021/05/28 04:48:53;;;;;;;40.67;6.53;;;30.60;13.90;;;;;;5039338;28;20153;-64
2021/05/28 04:51:20;;;;;;;38.38;6.47;;;;;;;;;;5040430;28;20089;-63
2021/05/28 04:53:46;;;;;;;42.65;6.38;;;;;;;;;;5056482;28;20069;-64
2021/05/28 04:56:13;;;;;;;28.30;5.75;;;;;;;;;;5038714;28;20028;-64
2021/05/28 04:58:40;;;;;;;32.03;6.30;;;30.30;32.90;;;;;;5040474;28;20037;-62
2021/05/28 05:01:06;;;;;;;21.52;5.60;;;;;;;;;;5039876;28;20460;-63
2021/05/28 05:03:33;;;;;;;22.45;5.55;;;30.20;21.80;;;;;;5040405;28;20050;-63
2021/05/28 05:05:59;;;;;;;26.70;5.10;;;29.80;26.80;;;;;;5042959;28;20085;-64
2021/05/28 05:08:26;;;;;;;20.35;4.97;;;30.00;15.40;;;;;;5039129;28;20532;-64
2021/05/28 05:10:53;;;;;;;28.02;5.10;;;;;;;;;;5041258;28;20169;-63
2021/05/28 05:13:20;;;;;;;19.13;4.60;;;29.80;36.80;;;;;;5042920;28;20048;-63
2021/05/28 05:15:47;;;;;;;16.73;3.67;;;29.80;27.60;;;;;;5043272;28;20079;-65
2021/05/28 05:18:13;;;;;;;17.15;4.45;;;;;;;;;;5042393;28;20077;-65
2021/05/28 05:20:40;;;;;;;22.75;3.83;;;;;;;;;;5043865;28;20034;-64
2021/05/28 05:23:06;;;;;;;17.05;3.30;;;29.60;14.30;;;;;;5042162;28;20048;-62
2021/05/28 05:25:33;;;;;;;16.90;3.40;;;29.50;14.30;;;;;;5043861;28;20085;-62
2021/05/28 05:28:00;;;;;;;11.52;2.55;;;29.50;39.60;;;;;;5044087;28;20070;-65
2021/05/28 05:30:26;;;;;;;9.77;2.30;;;29.50;28.60;;;;;;5043344;28;20155;-64
2021/05/28 05:32:53;;;;;;;11.07;2.25;;;29.30;27.80;;;;;;5045288;28;20074;-62
2021/05/28 05:35:19;;;;;;;12.25;2.50;;;29.20;24.90;;;;;;5044936;28;20028;-63
2021/05/28 05:37:46;;;;;;;11.15;2.38;;;29.20;14.20;;;;;;5045962;28;20081;-63
2021/05/28 05:40:13;;;;;;;10.75;2.70;;;29.20;14.20;;;;;;5043436;28;20523;-63
2021/05/28 05:42:40;;;;;;;11.77;2.20;;;;;;;;;;5041439;28;20074;-63
2021/05/28 05:45:09;;;;;;;19.20;2.83;;;29.10;36.60;;;;;;5042718;28;20030;-64
2021/05/28 05:47:36;;;;;;;14.65;2.65;;;;;;;;;;5042904;28;20478;-63
2021/05/28 05:50:03;;;;;;;11.95;2.42;;;;;;;;;;5041707;28;20112;-63
2021/05/28 05:52:30;;;;;;;14.30;2.88;;;28.70;15.70;;;;;;5042863;28;20085;-63
2021/05/28 05:54:56;;;;;;;14.05;2.20;;;29.00;30.60;;;;;;5038366;28;20053;-63
2021/05/28 05:57:23;;;;;;;14.05;2.67;;;29.00;22.20;;;;;;5046803;28;20113;-63
2021/05/28 05:59:49;;;;;;;14.35;2.60;;;;;;;;;;5042200;28;20089;-64
2021/05/28 06:02:16;;;;;;;15.02;2.35;;;;;;;;;;5040868;28;20028;-64
2021/05/28 06:04:43;;;;;;;8.88;2.20;;;;;;;;;;5040913;28;20038;-63
2021/05/28 06:07:09;;;;;;;11.80;2.40;;;28.80;27.80;;;;;;5043553;28;20069;-64
2021/05/28 06:09:36;;;;;;;11.32;2.03;;;;;;;;;;5042716;28;20092;-64
2021/05/28 06:12:03;;;;;;;12.48;1.90;;;28.30;40.60;;;;;;5040658;28;20026;-64
2021/05/28 06:14:29;;;;;;;10.23;2.13;;;28.30;13.10;;;;;;5039996;28;20478;-64
2021/05/28 06:16:56;;;;;;;11.65;1.95;;;28.20;18.90;;;;;;5042868;28;20425;-64
2021/05/28 06:19:22;;;;;;;9.80;2.20;;;28.30;23.30;;;;;;5045868;28;20164;-64
2021/05/28 06:21:49;;;;;;;7.05;1.88;;;28.30;14.00;;;;;;5043008;28;20426;-63
2021/05/28 06:24:16;;;;;;;7.45;1.95;;;28.30;14.40;;;;;;5042606;28;20097;-63
2021/05/28 06:26:42;;;;;;;13.07;2.10;;;28.30;14.40;;;;;;5039866;28;20096;-64
2021/05/28 06:29:10;;;;;;;11.30;2.28;;;28.30;15.00;;;;;;5040548;28;20450;-63
2021/05/28 06:31:37;;;;;;;17.23;2.05;;;28.20;15.60;;;;;;5042678;28;20105;-64
2021/05/28 06:34:04;;;;;;;8.45;2.17;;;28.10;15.90;;;;;;5041796;28;20081;-63
2021/05/28 06:36:32;;;;;;;9.45;1.90;;;28.10;16.70;;;;;;5043647;28;20077;-62
2021/05/28 06:38:59;;;;;;;14.68;2.33;;;28.00;17.10;;;;;;5037374;28;20090;-63
2021/05/28 06:41:25;;;;;;;11.43;2.53;;;27.90;20.70;;;;;;5043258;28;20102;-62
2021/05/28 06:43:52;;;;;;;10.27;2.10;;;27.80;17.60;;;;;;5042226;28;20093;-62
2021/05/28 06:46:18;;;;;;;17.85;2.42;;;27.80;17.80;;;;;;5041374;28;20183;-62
2021/05/28 06:48:45;;;;;;;15.68;3.00;;;27.80;17.90;;;;;;5042476;28;20088;-64
2021/05/28 06:51:12;;;;;;;8.73;2.40;;;27.80;18.00;;;;;;5043314;28;20716;-64
2021/05/28 06:53:39;;;;;;;6.18;1.95;;;27.80;18.10;;;;;;5041916;28;20097;-63
2021/05/28 06:56:06;;;;;;;8.43;2.30;;;27.80;18.10;;;;;;5044360;28;20529;-63
2021/05/28 06:58:33;;;;;;;12.07;2.58;;;27.70;18.10;;;;;;5042294;28;20084;-63
2021/05/28 07:01:00;;;;;;;11.40;2.28;;;27.70;18.10;;;;;;5039616;28;20443;-64
2021/05/28 07:03:27;;;;;;;10.80;2.20;;;27.60;17.90;;;;;;5035645;28;20078;-63
2021/05/28 07:05:54;;;;;;;9.05;2.20;;;27.60;18.00;;;;;;5039974;28;20107;-63
2021/05/28 07:08:20;;;;;;;12.20;2.28;;;27.60;18.20;;;;;;5045167;28;20070;-63
2021/05/28 07:10:47;;;;;;;9.30;2.03;;;27.50;18.20;;;;;;5039718;28;20070;-63
2021/05/28 07:13:14;;;;;;;17.75;2.63;;;27.50;18.20;;;;;;5040004;28;21379;-63
2021/05/28 07:15:40;;;;;;;7.80;2.30;;;27.40;18.00;;;;;;5039206;28;20116;-62
2021/05/28 07:18:07;;;;;;;10.90;2.28;;;27.40;17.80;;;;;;5040921;28;20418;-63
2021/05/28 07:20:34;;;;;;;11.77;2.33;;;27.40;17.90;;;;;;5038636;28;20167;-63
2021/05/28 07:23:00;;;;;;;9.00;2.35;;;27.40;18.00;;;;;;5042563;28;20078;-63
2021/05/28 07:25:27;;;;;;;7.93;2.10;;;27.40;18.10;;;;;;5041102;28;20073;-63
2021/05/28 07:27:53;;;;;;;11.20;2.60;;;27.40;18.10;;;;;;5037741;28;20156;-65
2021/05/28 07:30:21;;;;;;;15.68;2.78;;;27.70;18.60;;;;;;5035537;28;20169;-65
2021/05/28 07:32:47;;;;;;;16.27;2.33;;;28.00;18.10;;;;;;5035593;28;20070;-65
2021/05/28 07:35:14;;;;;;;11.25;2.30;;;28.30;17.80;;;;;;5036126;28;20108;-65
2021/05/28 07:37:41;;;;;;;7.50;2.05;;;28.60;17.50;;;;;;5035648;28;20510;-65
2021/05/28 07:40:09;;;;;;;8.70;1.80;;;28.80;17.30;;;;;;5036094;28;20117;-65
2021/05/28 07:42:37;;;;;;;7.03;1.90;;;28.80;17.00;;;;;;5033912;28;20207;-65
2021/05/28 07:45:04;;;;;;;8.93;2.20;;;28.80;17.00;;;;;;5035413;28;20074;-65
2021/05/28 07:47:31;;;;;;;8.80;2.28;;;28.80;16.90;;;;;;5034363;28;20074;-65
2021/05/28 07:50:00;;;;;;;13.63;2.20;;;28.80;16.80;;;;;;5036503;28;20115;-65
2021/05/28 07:52:27;;;;;;;15.93;2.90;;;28.80;16.60;;;;;;5035500;28;20074;-64
2021/05/28 07:54:53;;;;;;;12.30;1.92;;;28.90;16.60;;;;;;5038604;28;20084;-64
2021/05/28 07:57:19;;;;;;;35.58;2.95;;;29.00;16.20;;;;;;5035860;28;20155;-63
2021/05/28 07:59:46;;;;;;;13.40;2.85;;;28.90;16.30;;;;;;5030116;28;20094;-64
2021/05/28 08:02:12;;;;;;;32.88;2.97;;;29.00;16.30;;;;;;5036411;28;20085;-63
2021/05/28 08:04:39;;;;;;;12.60;2.15;;;28.90;16.10;;;;;;5034207;28;20172;-63
2021/05/28 08:07:06;;;;;;;12.90;1.80;;;28.80;15.90;;;;;;5035442;28;20080;-64
2021/05/28 08:09:32;;;;;;;9.35;2.22;;;28.90;16.00;;;;;;5036985;28;20081;-65
2021/05/28 08:11:59;;;;;;;5.95;1.88;;;28.90;16.10;;;;;;5036688;28;20123;-66
2021/05/28 08:14:25;;;;;;;11.98;2.03;;;28.80;16.00;;;;;;5031283;28;20078;-64
2021/05/28 08:16:52;;;;;;;10.52;2.00;;;28.90;16.10;;;;;;5036682;28;20531;-64
2021/05/28 08:19:18;;;;;;;11.43;2.30;;;28.90;16.10;;;;;;5033971;28;20813;-63
2021/05/28 08:21:45;;;;;;;31.65;3.25;;;28.80;16.20;;;;;;5037274;28;20105;-64
2021/05/28 08:24:11;;;;;;;19.83;2.80;;;28.80;16.30;;;;;;5033273;28;20082;-64
2021/05/28 08:26:38;;;;;;;31.58;3.70;;;28.90;16.30;;;;;;5032356;28;20078;-64
2021/05/28 08:29:05;;;;;;;17.77;2.90;;;28.80;16.40;;;;;;5036703;28;20524;-64
2021/05/28 08:31:33;;;;;;;9.68;1.38;;;28.70;16.30;;;;;;5035355;28;20101;-64
2021/05/28 08:34:00;;;;;;;7.35;1.65;;;28.50;16.10;;;;;;5032675;28;20074;-63
2021/05/28 08:36:27;;;;;;;6.47;1.40;;;28.40;16.40;;;;;;5038187;28;20493;-64
2021/05/28 08:38:53;;;;;;;6.75;1.55;;;28.30;16.30;;;;;;5038745;28;20073;-64
2021/05/28 08:41:22;;;;;;;6.63;1.52;;;28.20;16.50;;;;;;5035785;28;20114;-63
2021/05/28 08:43:48;;;;;;;6.55;1.98;;;28.10;16.60;;;;;;5033798;28;20070;-64
2021/05/28 08:46:16;;;;;;;8.52;1.77;;;28.10;16.70;;;;;;5034623;28;20085;-64
2021/05/28 08:48:44;;;;;;;5.75;1.75;;;28.00;16.80;;;;;;5034103;28;20077;-63
2021/05/28 08:51:11;;;;;;;7.25;1.67;;;28.10;17.10;;;;;;5036332;28;20173;-64
2021/05/28 08:53:37;;;;;;;8.73;1.85;;;27.90;17.00;;;;;;5034742;28;20073;-63
2021/05/28 08:56:08;;;;;;;8.32;1.60;;;27.90;17.20;;;;;;5032259;28;20078;-64
2021/05/28 08:58:35;;;;;;;8.20;1.60;;;27.90;17.50;;;;;;5035351;28;20074;-64
2021/05/28 09:01:02;;;;;;;4.80;1.40;;;28.00;17.40;;;;;;5039029;28;20090;-63
2021/05/28 09:03:34;;;;;;;5.47;1.50;;;28.00;17.50;;;;;;5039422;28;20077;-64
2021/05/28 09:06:22;;;;;;;7.68;1.60;;;27.90;17.90;;;;;;5039152;28;20105;-63
2021/05/28 09:08:48;;;;;;;6.63;1.55;;;27.80;17.40;;;;;;5041432;28;20535;-64
2021/05/28 09:11:17;;;;;;;9.23;1.90;;;27.70;17.60;;;;;;5046930;28;20090;-63
2021/05/28 09:13:54;;;;;;;10.25;1.85;;;27.60;18.00;;;;;;5041478;28;20074;-64
2021/05/28 09:16:27;;;;;;;8.18;2.20;;;27.50;18.50;;;;;;5037136;28;20092;-64
2021/05/28 09:18:59;;;;;;;7.90;1.83;;;27.40;18.90;;;;;;5037192;28;20138;-64
2021/05/28 09:21:34;;;;;;;11.48;2.30;;;27.30;19.40;;;;;;5035455;28;20109;-63
2021/05/28 09:24:02;;;;;;;9.15;2.25;;;27.20;20.10;;;;;;5040690;28;20111;-63
2021/05/28 09:26:31;;;;;;;12.80;2.00;;;27.10;20.70;;;;;;5038963;28;20093;-64
2021/05/28 09:28:58;;;;;;;7.30;1.75;;;27.10;21.00;;;;;;5040094;28;20069;-63
2021/05/28 09:31:32;;;;;;;17.58;2.65;;;27.00;21.30;;;;;;5039483;28;20073;-64
2021/05/28 09:33:59;;;;;;;13.52;2.25;;;27.00;21.90;;;;;;5039489;28;20215;-63
2021/05/28 09:36:36;;;;;;;16.17;2.45;;;26.90;21.90;;;;;;5038649;28;20089;-64
2021/05/28 09:39:08;;;;;;;12.98;2.28;;;26.70;22.30;;;;;;5036909;28;20070;-63
2021/05/28 09:41:36;;;;;;;15.70;2.20;;;26.80;22.70;;;;;;5037772;28;20566;-63
2021/05/28 09:44:25;;;;;;;11.23;1.98;;;26.70;23.00;;;;;;5040629;28;20109;-63
2021/05/28 09:47:16;;;;;;;9.57;2.30;;;26.50;23.00;;;;;;5039326;28;20081;-64
2021/05/28 09:49:47;;;;;;;18.05;2.40;;;26.20;23.50;;;;;;5036607;28;20416;-63
2021/05/28 09:52:22;;;;;;;15.70;2.33;;;26.10;23.80;;;;;;5038698;28;20097;-63
2021/05/28 09:55:02;;;;;;;18.50;2.38;;;25.90;24.10;;;;;;5035696;28;20097;-63
2021/05/28 09:57:37;;;;;;;13.82;2.17;;;25.80;24.40;;;;;;5039148;28;20507;-64
2021/05/28 10:00:10;;;;;;;9.18;2.47;;;25.80;24.60;;;;;;5038699;28;20120;-64
2021/05/28 10:02:42;;;;;;;12.15;2.20;;;25.70;24.60;;;;;;5038320;28;20082;-63
2021/05/28 10:05:09;;;;;;;9.15;2.63;;;25.80;24.90;;;;;;5037706;28;20143;-63
2021/05/28 10:07:37;;;;;;;9.80;2.53;;;25.80;25.10;;;;;;5038168;28;20069;-63
2021/05/28 10:10:05;;;;;;;14.13;2.30;;;25.70;25.30;;;;;;5036469;28;20157;-64
2021/05/28 10:12:32;;;;;;;9.13;1.92;;;25.60;25.50;;;;;;5036071;28;20078;-63
2021/05/28 10:14:59;;;;;;;12.93;3.03;;;25.50;25.60;;;;;;5035368;28;20076;-64
2021/05/28 10:17:25;;;;;;;8.48;2.05;;;25.40;25.60;;;;;;5039551;28;20109;-64
2021/05/28 10:19:52;;;;;;;13.60;2.15;;;25.40;25.70;;;;;;5038002;28;20554;-65
2021/05/28 10:22:22;;;;;;;10.93;2.35;;;25.40;25.80;;;;;;5037657;28;20477;-65
2021/05/28 10:24:48;;;;;;;16.83;2.50;;;25.30;25.90;;;;;;5038746;28;20157;-64
2021/05/28 10:27:25;;;;;;;13.18;2.53;;;25.30;26.10;;;;;;5033561;28;20128;-64
2021/05/28 10:29:54;;;;;;;13.02;2.65;;;25.20;26.00;;;;;;5036736;28;20077;-64
2021/05/28 10:32:21;;;;;;;10.60;2.13;;;25.10;25.70;;;;;;5036947;28;20161;-64
2021/05/28 10:35:11;;;;;;;11.52;2.50;;;25.10;25.60;;;;;;5038067;28;20507;-64
2021/05/28 10:37:42;;;;;;;17.00;2.72;;;25.10;25.30;;;;;;5035948;28;20096;-64
2021/05/28 10:40:30;;;;;;;13.40;2.20;;;25.10;25.50;;;;;;5038879;28;20542;-64
2021/05/28 10:43:04;;;;;;;9.25;1.65;;;25.10;24.90;;;;;;5039470;28;20081;-64
2021/05/28 10:46:03;;;;;;;9.52;2.22;;;25.10;24.70;;;;;;5038042;28;20168;-64
2021/05/28 10:48:42;;;;;;;13.30;2.40;;;25.20;24.80;;;;;;5042125;28;20069;-64
2021/05/28 10:51:17;;;;;;;13.00;2.20;;;25.20;24.90;;;;;;5037458;28;20474;-64
2021/05/28 10:53:53;;;;;;;12.90;2.40;;;25.20;24.80;;;;;;5034145;28;20084;-64
2021/05/28 10:56:28;;;;;;;10.87;2.00;;;25.20;24.90;;;;;;5034817;28;20565;-64
2021/05/28 10:58:58;;;;;;;11.50;2.20;;;25.20;25.00;;;;;;5035960;28;20075;-64
2021/05/28 11:01:56;;;;;;;9.00;2.63;;;25.20;25.10;;;;;;5036843;28;20093;-64
2021/05/28 11:04:42;;;;;;;11.02;2.47;;;25.20;25.00;;;;;;5035341;28;20157;-64
2021/05/28 11:07:09;;;;;;;14.10;1.93;;;25.20;25.10;;;;;;5038298;28;20128;-64
2021/05/28 11:09:50;;;;;;;14.93;2.40;;;25.20;25.00;;;;;;5040960;28;20081;-62
2021/05/28 11:12:26;;;;;;;8.60;2.17;;;25.10;25.00;;;;;;5035973;28;20084;-64
2021/05/28 11:15:08;;;;;;;13.75;2.63;;;25.10;25.30;;;;;;5034603;28;20172;-64
2021/05/28 11:17:58;;;;;;;10.27;2.47;;;25.10;25.20;;;;;;5033817;28;20093;-64
2021/05/28 11:20:27;;;;;;;12.60;2.30;;;25.00;24.60;;;;;;5034687;28;20256;-64
2021/05/28 11:22:54;;;;;;;20.05;2.25;;;25.00;24.70;;;;;;5034165;28;20070;-64
2021/05/28 11:25:25;;;;;;;12.30;1.92;;;24.90;24.60;;;;;;5036925;28;20085;-64
2021/05/28 11:27:58;;;;;;;8.98;2.20;;;24.80;24.50;;;;;;5036277;28;20447;-64
2021/05/28 11:30:26;;;;;;;11.35;2.25;;;24.80;25.00;;;;;;5040833;28;20082;-65
2021/05/28 11:32:53;;;;;;;11.85;2.10;;;24.80;24.90;;;;;;5036555;28;20074;-65
2021/05/28 11:35:22;;;;;;;12.40;2.35;;;24.70;25.20;;;;;;5039934;28;20143;-64
2021/05/28 11:38:01;;;;;;;13.18;2.15;;;24.70;25.70;;;;;;5032507;28;20223;-65
2021/05/28 11:40:37;;;;;;;8.43;1.92;;;24.60;26.00;;;;;;5034299;28;20546;-65
2021/05/28 11:43:13;;;;;;;;;;;24.60;26.10;;;;;;5039854;28;20077;-64
2021/05/28 11:45:46;;;;;;;14.57;2.42;;;24.50;26.40;;;;;;5034044;28;20063;-65
2021/05/28 11:48:15;;;;;;;14.57;2.42;;;24.40;26.40;;;;;;5036557;28;20411;-65
2021/05/28 11:50:50;;;;;;;15.85;2.85;;;24.30;26.50;;;;;;5037208;28;20066;-64
2021/05/28 11:53:17;;;;;;;16.77;2.92;;;24.30;26.50;;;;;;5033687;28;20069;-65
2021/05/28 11:55:45;;;;;;;21.83;4.43;;;24.20;26.50;;;;;;5040686;28;20131;-65
2021/05/28 11:58:13;;;;;;;47.05;9.80;;;24.20;26.90;;;;;;5036440;28;20135;-65
2021/05/28 12:00:41;;;;;;;60.17;13.23;;;24.10;26.90;;;;;;5036783;28;20542;-64
2021/05/28 12:03:08;;;;;;;68.22;16.10;;;24.00;26.70;;;;;;5035809;28;20070;-65
2021/05/28 12:05:40;;;;;;;80.38;17.10;;;23.90;26.50;;;;;;5049098;28;20070;-64
2021/05/28 12:08:20;;;;;;;67.72;15.68;;;23.70;26.60;;;;;;5038224;28;20074;-64
2021/05/28 12:10:50;;;;;;;79.30;16.15;;;23.60;26.70;;;;;;5035908;28;20078;-65
2021/05/28 12:13:20;;;;;;;61.17;14.15;;;23.50;26.80;;;;;;5038726;28;20153;-65
2021/05/28 12:15:52;;;;;;;66.85;14.00;;;23.40;27.20;;;;;;5037261;28;20085;-65
2021/05/28 12:18:23;;;;;;;71.68;13.90;;;23.30;27.30;;;;;;5034657;28;20070;-66
2021/05/28 12:20:53;;;;;;;62.63;15.20;;;23.20;27.40;;;;;;5035182;28;20093;-64
2021/05/28 12:23:23;;;;;;;73.35;13.43;;;23.10;27.70;;;;;;5031600;28;20074;-65
2021/05/28 12:25:56;;;;;;;70.00;14.25;;;23.10;28.00;;;;;;5036798;28;20073;-65
2021/05/28 12:28:25;;;;;;;67.07;13.07;;;23.00;28.00;;;;;;5035707;28;20086;-65
2021/05/28 12:31:20;;;;;;;54.70;13.15;;;23.00;28.40;;;;;;5037818;28;20070;-65
2021/05/28 12:34:05;;;;;;;62.10;13.35;;;23.00;28.40;;;;;;5040457;28;20094;-64
2021/05/28 12:36:38;;;;;;;62.38;13.40;;;22.90;28.60;;;;;;5039376;28;20161;-64
2021/05/28 12:39:08;;;;;;;67.28;13.32;;;22.80;28.50;;;;;;5037670;28;20116;-65
2021/05/28 12:41:35;;;;;;;55.80;13.00;;;22.70;28.80;;;;;;5039502;28;20434;-64
2021/05/28 12:44:04;;;;;;;53.70;12.77;;;22.70;29.00;;;;;;5037747;28;20576;-64
2021/05/28 12:46:37;;;;;;;60.33;14.48;;;22.70;29.10;;;;;;5037732;28;20488;-64
2021/05/28 12:49:09;;;;;;;67.60;14.48;;;22.60;29.40;;;;;;5040936;28;20161;-64
2021/05/28 12:51:47;;;;;;;75.40;15.50;;;22.60;29.50;;;;;;5037312;28;20082;-64